• Join FlightAware (Why Join?)
  • Login
  • US Flag 
10:31AM EDT


 

Airport Tracker/Info


-or-


 

Live Flight TrackerFlight Track Log ✈ SWA3247 ✈ 09-Aug-2013 ✈ KLAS - KALB

Flight Track Log - Related Links

Times and Time Zones

All times are in EDT time to prevent confusion due to time zone crossing. See the SWA3247 flight status page for this flight to view local times or setup timezone preferences in your user account.

Time Position Orientation Groundspeed Altitude Reporting Facility
EDT Latitude Longitude Course Direction KTS MPH feet Rate Location/Type
08:55PM 36.0772 -115.1811 65° Northeast 165 190 3,800  Level Los Angeles Center
08:56PM 36.0756 -115.2350 268° West 208 239 4,900 1,980 Climbing Los Angeles Center
08:57PM 36.1361 -115.2942 322° Northwest 259 298 7,900 2,340 Climbing Los Angeles Center
08:58PM 36.1858 -115.2206 50° Northeast 289 333 10,500 2,820 Climbing Los Angeles Center
08:59PM 36.1967 -115.1153 83° East 304 350 13,800 3,180 Climbing Los Angeles Center
09:00PM 36.1986 -114.9889 89° East 306 352 17,100 2,220 Climbing Los Angeles Center
09:01PM 36.4154 -114.2404 65° Northeast  Level Estimated
09:01PM 36.1992 -114.8653 90° East 358 412 18,500  Level Los Angeles Center
09:02PM 36.2000 -114.7300 90° East 389 448 20,800 1,980 Climbing Los Angeles Center
09:04PM 36.1975 -114.5889 91° East 407 468 23,000 1,980 Climbing Los Angeles Center
09:05PM 36.1964 -114.4139 90° East 420 483 25,400 2,220 Climbing Los Angeles Center
09:06PM 36.1939 -114.2322 91° East 436 502 27,700 1,860 Climbing Los Angeles Center
09:07PM 36.2133 -114.0772 81° East 451 519 29,300 1,380 Climbing Los Angeles Center
09:08PM 36.2331 -113.9181 81° East 463 533 30,600 1,500 Climbing Los Angeles Center
09:09PM 36.2517 -113.7561 82° East 472 543 32,400 1,680 Climbing Los Angeles Center
09:10PM 36.2694 -113.5950 82° East 473 544 34,100 1,500 Climbing Los Angeles Center
09:11PM 36.2881 -113.4356 82° East 470 541 35,500 1,140 Climbing Los Angeles Center
09:12PM 36.3053 -113.2758 82° East 468 539 36,500 720 Climbing Los Angeles Center
09:13PM 36.3556 -113.1031 70° East 482 555 37,000 240 Climbing Los Angeles Center
09:14PM 36.4122 -112.9525 65° Northeast 484 557 37,000  Level Los Angeles Center
09:15PM 36.4672 -112.8028 65° Northeast 482 555 37,000  Level Los Angeles Center
09:16PM 36.5344 -112.6214 65° Northeast 483 556 37,000  Level Los Angeles Center
09:17PM 36.5903 -112.4703 65° Northeast 484 557 37,000  Level Los Angeles Center
09:18PM 36.6464 -112.3169 65° Northeast 487 560 37,000  Level Los Angeles Center
09:19PM 36.7019 -112.1642 66° East 488 562 37,000  Level Los Angeles Center
09:20PM 36.7572 -112.0111 66° East 487 560 37,000  Level Los Angeles Center
09:21PM 36.8122 -111.8586 66° East 485 558 37,000  Level Los Angeles Center
09:22PM 36.8778 -111.6753 66° East 485 558 37,000  Level Los Angeles Center
09:23PM 36.8989 -111.6131 67° East 487 560 37,000  Level Denver Center
09:24PM 36.9639 -111.4303 66° East 484 557 37,000 120 Level Denver Center
09:25PM 37.0175 -111.2772 66° East 483 556 37,300 420 Climbing Denver Center
09:26PM 37.0719 -111.1211 66° East 490 564 37,900 300 Climbing Denver Center
09:27PM 37.1269 -110.9622 66° East 497 572 38,000  Climbing Denver Center
09:28PM 37.1822 -110.8044 66° East 496 571 38,000  Level Denver Center
09:29PM 37.2461 -110.6158 67° East 493 567 38,000  Level Denver Center
09:30PM 37.3122 -110.4261 66° East 495 570 38,000  Level Denver Center
09:31PM 37.3647 -110.2711 67° East 489 563 38,000  Level Denver Center
09:32PM 37.4172 -110.1147 67° East 485 558 38,000  Level Denver Center
09:34PM 37.4761 -109.9394 67° East 485 558 38,000 -180 Level Denver Center
09:35PM 37.5347 -109.7633 67° East 486 559 37,600 -480 Descending Denver Center
09:36PM 37.5936 -109.5878 67° East 486 559 37,000 -300 Descending Denver Center
09:37PM 37.6350 -109.4619 67° East 487 560 37,000  Level Denver Center
09:38PM 37.7014 -109.2608 67° East 485 558 37,000  Level Denver Center
09:39PM 37.7503 -109.1106 68° East 484 557 37,000  Level Denver Center
09:40PM 37.8069 -108.9367 68° East 480 552 37,000  Level Denver Center
09:41PM 37.8589 -108.7853 66° East 487 560 37,000  Level Denver Center
09:42PM 37.9203 -108.6111 66° East 485 558 37,000  Level Denver Center
09:43PM 37.9708 -108.4625 67° East 482 555 37,000  Level Denver Center
09:44PM 38.0325 -108.2861 66° East 487 560 37,000  Level Denver Center
09:45PM 38.0808 -108.1439 67° East 484 557 37,000  Level Denver Center
09:46PM 38.1403 -107.9711 66° East 480 552 37,000  Level Denver Center
09:47PM 38.1906 -107.8231 67° East 479 551 37,000  Level Denver Center
09:48PM 38.2486 -107.6494 67° East 479 551 37,000  Level Denver Center
09:49PM 38.2989 -107.5008 67° East 479 551 37,000  Level Denver Center
09:50PM 38.3567 -107.3269 67° East 478 550 37,000  Level Denver Center
09:51PM 38.4100 -107.1658 67° East 482 555 37,000  Level Denver Center
09:53PM 38.4656 -106.9733 70° East 483 556 37,000  Level Denver Center
09:54PM 38.5050 -106.7725 76° East 488 562 37,000  Level Denver Center
09:55PM 38.5375 -106.6042 76° East 490 564 37,000  Level Denver Center
09:56PM 38.5700 -106.4367 76° East 490 564 37,000  Level Denver Center
09:57PM 38.6033 -106.2669 76° East 493 567 37,000  Level Denver Center
09:58PM 38.6411 -106.0744 76° East 490 564 37,000  Level Denver Center
09:59PM 38.6719 -105.9056 77° East 490 564 37,000  Level Denver Center
10:00PM 38.7064 -105.7386 75° East 489 563 37,000 240 Level Denver Center
10:01PM 38.7361 -105.5708 77° East 486 559 37,500 720 Climbing Denver Center
10:02PM 38.7731 -105.3700 77° East 484 557 38,500 720 Climbing Denver Center
10:03PM 38.8036 -105.1972 77° East 497 572 39,000 240 Climbing Denver Center
10:04PM 38.8361 -105.0258 76° East 498 573 39,000  Level Denver Center
10:05PM 38.8664 -104.8508 77° East 503 579 39,000  Level Denver Center
10:06PM 38.8989 -104.6756 77° East 508 585 39,000  Level Denver Center
10:07PM 38.9358 -104.4653 77° East 507 583 39,000  Level Denver Center
10:08PM 38.9672 -104.2861 77° East 514 592 39,000  Level Denver Center
10:09PM 38.9981 -104.1067 77° East 518 596 39,000  Level Denver Center
10:10PM 39.0289 -103.9253 78° East 521 600 39,000  Level Denver Center
10:11PM 39.0597 -103.7439 78° East 523 602 39,000  Level Denver Center
10:12PM 39.0908 -103.5603 78° East 527 606 39,000  Level Denver Center
10:13PM 39.1286 -103.3386 78° East 529 609 39,000  Level Denver Center
10:14PM 39.1578 -103.1542 78° East 529 609 39,000  Level Denver Center
10:15PM 39.1883 -102.9681 78° East 531 611 39,000  Level Denver Center
10:16PM 39.2200 -102.7808 78° East 536 617 39,000  Level Denver Center
10:17PM 39.2503 -102.5867 79° East 534 615 39,000  Level Denver Center
10:18PM 39.2778 -102.4056 79° East 537 618 39,000  Level Denver Center
10:19PM 39.3100 -102.1967 79° East 532 612 39,000  Level Denver Center
10:20PM 39.3394 -102.0078 79° East 531 611 39,000  Level Denver Center
10:22PM 39.3669 -101.8297 79° East 530 610 39,000  Level Denver Center
10:23PM 39.4189 -101.5981 74° East 528 608 39,000  Level Denver Center
10:24PM 39.4847 -101.4042 66° East 527 606 39,000  Level Denver Center
10:25PM 39.5403 -101.2383 66° East 527 606 39,000  Level Denver Center
10:26PM 39.6053 -101.0428 67° East 530 610 39,000  Level Denver Center
10:27PM 39.6597 -100.8747 67° East 531 611 39,000  Level Denver Center
10:28PM 39.7153 -100.7078 67° East 530 610 39,000  Level Denver Center
10:29PM 39.7789 -100.5156 67° East 522 601 39,000  Level Denver Center
10:30PM 39.8317 -100.3503 67° East 519 597 39,000  Level Denver Center
10:31PM 39.8858 -100.1817 67° East 518 596 39,000  Level Denver Center
10:32PM 39.9522 -99.9736 67° East 519 597 39,000  Level Denver Center
10:33PM 40.0083 -99.8019 67° East 518 596 39,000  Level Denver Center
10:34PM 40.0622 -99.6272 68° East 518 596 39,000  Level Denver Center
10:35PM 40.1169 -99.4531 68° East 519 597 39,000  Level Denver Center
10:36PM 40.1703 -99.2803 68° East 516 594 39,000  Level Denver Center
10:37PM 40.2239 -99.1100 68° East 510 587 39,000  Level Denver Center
10:38PM 40.2667 -98.9739 68° East 511 588 39,000  Level Minneapolis Center
10:39PM 40.3178 -98.8033 68° East 508 585 39,000  Level Minneapolis Center
10:40PM 40.3692 -98.6333 68° East 505 581 39,000  Level Minneapolis Center
10:41PM 40.4208 -98.4639 68° East 505 581 39,000  Level Minneapolis Center
10:42PM 40.4714 -98.2925 69° East 505 581 39,000  Level Minneapolis Center
10:43PM 40.5111 -98.1142 74° East 509 586 39,000  Level Minneapolis Center
10:44PM 40.5469 -97.9356 75° East 509 586 39,000  Level Minneapolis Center
10:45PM 40.5900 -97.7206 75° East 510 587 39,000  Level Minneapolis Center
10:46PM 40.6261 -97.5408 75° East 509 586 39,000  Level Minneapolis Center
10:47PM 40.6608 -97.3594 76° East 512 589 39,000  Level Minneapolis Center
10:48PM 40.6989 -97.1706 75° East 510 587 39,000  Level Minneapolis Center
10:49PM 40.7339 -96.9900 76° East 510 587 39,000  Level Minneapolis Center
10:50PM 40.7686 -96.8114 76° East 507 583 39,000  Level Minneapolis Center
10:51PM 40.8036 -96.6314 76° East 508 585 39,000  Level Minneapolis Center
10:52PM 40.8364 -96.4519 76° East 508 585 39,000  Level Minneapolis Center
10:53PM 40.8700 -96.2733 76° East 505 581 39,000  Level Minneapolis Center
10:54PM 40.9028 -96.0958 76° East 503 579 39,000  Level Minneapolis Center
10:55PM 40.9419 -95.8808 76° East 505 581 39,000  Level Minneapolis Center
10:56PM 40.9747 -95.7011 76° East 507 583 39,000  Level Minneapolis Center
10:57PM 41.0078 -95.5197 76° East 510 587 39,000  Level Minneapolis Center
10:58PM 41.0408 -95.3369 76° East 513 590 39,000  Level Minneapolis Center
10:59PM 41.0733 -95.1544 77° East 513 590 39,000  Level Minneapolis Center
11:00PM 41.1122 -94.9344 77° East 513 590 39,000  Level Minneapolis Center
11:01PM 41.1433 -94.7503 77° East 514 592 39,000  Level Minneapolis Center
11:02PM 41.1747 -94.5664 77° East 513 590 39,000  Level Minneapolis Center
11:03PM 41.2064 -94.3817 77° East 513 590 39,000  Level Minneapolis Center
11:04PM 41.2314 -94.2156 79° East 509 586 39,000  Level Minneapolis Center
11:05PM 41.2692 -93.9953 77° East 511 588 39,000  Level Minneapolis Center
11:06PM 41.3008 -93.8103 77° East 514 592 39,000  Level Minneapolis Center
11:07PM 41.3308 -93.6247 78° East 516 594 39,000  Level Minneapolis Center
11:08PM 41.3622 -93.4375 77° East 520 598 39,000  Level Minneapolis Center
11:10PM 41.3914 -93.2511 78° East 519 597 39,000  Level Minneapolis Center
11:11PM 41.4217 -93.0633 78° East 520 598 39,000  Level Minneapolis Center
11:12PM 41.4500 -92.8742 79° East 522 601 39,000  Level Minneapolis Center
11:13PM 41.4794 -92.6869 78° East 521 600 39,000  Level Minneapolis Center
11:14PM 41.5133 -92.4597 79° East 522 601 39,000  Level Minneapolis Center
11:15PM 41.5425 -92.2703 78° East 523 602 39,000  Level Minneapolis Center
11:16PM 41.5706 -92.0797 79° East 525 604 39,000  Level Minneapolis Center
11:17PM 41.5983 -91.8883 79° East 527 606 39,000  Level Minneapolis Center
11:18PM 41.6269 -91.6764 80° East 527 606 39,000  Level Minneapolis Center
11:19PM 41.6628 -91.4367 79° East 522 601 39,000  Level Chicago Center
11:20PM 41.6889 -91.2475 79° East 524 603 39,000  Level Chicago Center
11:21PM 41.7150 -91.0597 79° East 522 601 39,000  Level Chicago Center
11:22PM 41.7447 -90.8311 80° East 525 604 39,000  Level Chicago Center
11:23PM 41.7714 -90.6400 79° East 528 608 39,000  Level Chicago Center
11:24PM 41.7978 -90.4483 79° East 530 610 39,000  Level Chicago Center
11:25PM 41.8214 -90.2592 80° East 526 605 39,000  Level Chicago Center
11:26PM 41.8461 -90.0658 80° East 532 612 39,000  Level Chicago Center
11:27PM 41.8725 -89.8539 80° East 529 609 39,000  Level Chicago Center
11:28PM 41.8978 -89.6592 80° East 529 609 39,000  Level Chicago Center
11:29PM 41.9206 -89.4653 81° East 530 610 39,000  Level Chicago Center
11:30PM 41.9439 -89.2708 81° East 529 609 39,000  Level Chicago Center
11:31PM 41.9675 -89.0789 81° East 523 602 39,000  Level Chicago Center
11:32PM 41.9919 -88.8839 80° East 527 606 39,000  Level Chicago Center
11:33PM 42.0144 -88.6872 81° East 531 611 39,000  Level Chicago Center
11:34PM 42.0408 -88.4506 81° East 533 613 39,000  Level Chicago Center
11:35PM 42.0636 -88.2536 81° East 532 612 39,000  Level Chicago Center
11:36PM 42.0847 -88.0572 82° East 531 611 39,000  Level Chicago Center
11:37PM 42.1067 -87.8603 81° East 531 611 39,000  Level Chicago Center
11:38PM 42.1272 -87.6636 82° East 531 611 39,000  Level Chicago Center
11:39PM 42.1478 -87.4664 82° East 532 612 39,000  Level Chicago Center
11:40PM 42.1683 -87.2717 82° East 528 608 39,000  Level Chicago Center
11:41PM 42.1878 -87.0747 82° East 533 613 39,000  Level Chicago Center
11:43PM 42.2078 -86.8800 82° East 528 608 39,000  Level Chicago Center
11:44PM 42.2292 -86.6586 82° East 531 611 39,000  Level Chicago Center
11:45PM 42.2483 -86.4611 82° East 532 612 39,000  Level Chicago Center
11:46PM 42.2672 -86.2625 83° East 533 613 39,000  Level Chicago Center
11:47PM 42.2853 -86.0628 83° East 535 616 39,000  Level Chicago Center
11:48PM 42.3014 -85.8819 83° East 533 613 39,000  Level Chicago Center
11:49PM 42.3192 -85.6850 83° East 534 615 39,000  Level Chicago Center
11:50PM 42.3414 -85.4456 83° East 537 618 39,000  Level Chicago Center
11:51PM 42.3581 -85.2456 83° East 539 620 39,000  Level Chicago Center
11:52PM 42.3747 -85.0492 83° East 533 613 39,000  Level Chicago Center
11:53PM 42.3917 -84.8522 83° East 531 611 39,000  Level Chicago Center
11:54PM 42.4072 -84.6539 84° East 533 613 39,000  Level Chicago Center
11:55PM 42.4228 -84.4575 84° East 530 610 39,000  Level Chicago Center
11:55PM 42.4306 -84.3278 85° East 528 608 39,000  Level Cleveland Center
11:56PM 42.4453 -84.1289 84° East 528 608 39,000  Level Cleveland Center
11:57PM 42.4617 -83.9297 84° East 533 613 39,000  Level Cleveland Center
11:58PM 42.4781 -83.7111 84° East 533 613 39,000  Level Cleveland Center
11:59PM 42.4917 -83.5089 85° East 533 613 39,000  Level Cleveland Center
12:00AM 42.5050 -83.3067 85° East 538 619 39,000  Level Cleveland Center
12:01AM 42.5181 -83.1072 85° East 533 613 39,000  Level Cleveland Center
12:02AM 42.5306 -82.9050 85° East 533 613 39,000  Level Cleveland Center
12:03AM 42.5428 -82.7025 85° East 533 613 39,000  Level Cleveland Center
12:04AM 42.5547 -82.5028 85° East 533 613 39,000  Level Cleveland Center
12:05AM 42.5661 -82.3028 86° East 538 619 39,000  Level Cleveland Center
12:06AM 42.5772 -82.1031 86° East 538 619 39,000  Level Cleveland Center
12:07AM 42.5903 -81.9031 85° East 538 619 39,000  Level Cleveland Center
12:08AM 42.6028 -81.7058 85° East 538 619 39,000  Level Cleveland Center
12:09AM 42.6128 -81.5028 86° East 530 610 39,000  Level Cleveland Center
12:10AM 42.6225 -81.2997 86° East 530 610 39,000  Level Cleveland Center
12:11AM 42.6319 -81.1025 86° East 530 610 39,000  Level Cleveland Center
12:12AM 42.6411 -80.9022 86° East 534 615 39,000  Level Cleveland Center
12:13AM 42.6519 -80.7047 86° East 534 615 39,000  Level Cleveland Center
12:14AM 42.6603 -80.5014 87° East 531 611 39,000  Level Cleveland Center
12:15AM 42.6661 -80.3206 87° East 531 611 39,000  Level Cleveland Center
12:16AM 42.6761 -80.1228 86° East 531 611 39,000  Level Cleveland Center
12:17AM 42.6856 -79.9222 86° East 536 617 39,000  Level Cleveland Center
12:18AM 42.6925 -79.7217 87° East 536 617 39,000  Level Cleveland Center
12:19AM 42.6992 -79.5211 87° East 531 611 39,000  Level Cleveland Center
12:20AM 42.7075 -79.3203 87° East 531 611 39,000  Level Cleveland Center
12:21AM 42.7136 -79.1222 88° East 531 611 39,000  Level Cleveland Center
12:22AM 42.7172 -78.9217 89° East 536 617 39,000  Level Cleveland Center
12:23AM 42.7244 -78.7208 87° East 536 617 39,000  Level Cleveland Center
12:24AM 42.7272 -78.5200 89° East 536 617 39,000 -240 Level Cleveland Center
12:25AM 42.7342 -78.3219 87° East 536 617 38,600 -660 Descending Cleveland Center
12:26AM 42.7383 -78.1181 88° East 531 611 37,700 -960 Descending Cleveland Center
12:27AM 42.7422 -77.9200 88° East 531 611 36,700 -960 Descending Cleveland Center
12:28AM 42.7450 -77.6908 89° East 539 620 35,800 -960 Descending Cleveland Center
12:29AM 42.7500 -77.4842 88° East 547 629 34,800 -1,020 Descending Cleveland Center
12:32AM 42.7556 -77.0386 89° East 554 638 32,600 -1,020 Descending Boston Center
12:33AM 42.7575 -76.8294 89° East 548 631 31,700 -900 Descending Boston Center
12:34AM 42.7594 -76.6683 89° East 543 625 30,900 -900 Descending Boston Center
12:35AM 42.7611 -76.4506 89° East 537 618 29,900 -1,140 Descending Boston Center
12:36AM 42.7603 -76.2300 90° East 530 610 28,700 -900 Descending Boston Center
12:37AM 42.7644 -76.0378 88° East 525 604 28,100 -360 Descending Boston Center
12:38AM 42.7622 -75.8397 91° East 519 597 28,000 -1,020 Descending Boston Center
12:39AM 42.7617 -75.6444 90° East 519 597 26,100 -2,100 Descending Boston Center
12:40AM 42.7625 -75.4661 90° East 508 585 23,800 -2,580 Descending Boston Center
12:41AM 42.7628 -75.2853 90° East 486 559 21,000 -2,820 Descending Boston Center
12:42AM 42.7631 -75.1097 90° East 472 543 18,400 -2,520 Descending Boston Center
12:43AM 42.7625 -74.9458 90° East 460 529 16,100 -2,340 Descending Boston Center
12:43AM 42.7625 -74.8497 90° East 423 487 14,800 -2,100 Descending Boston Center
12:44AM 42.7614 -74.6969 91° East 401 461 12,800 -1,680 Descending Boston Center
12:45AM 42.7581 -74.5497 92° East 381 438 11,400 -1,380 Descending Boston Center
12:46AM 42.7583 -74.4194 90° East 346 398 10,200 -1,260 Descending Boston Center
12:47AM 42.7542 -74.2950 93° East 324 373 8,900 -1,440 Descending Boston Center
12:48AM 42.7142 -74.1864 117° Southeast 303 349 7,300 -1,560 Descending Boston Center
12:49AM 42.6636 -74.0889 125° Southeast 308 354 5,800 -1,140 Descending Boston Center
12:50AM 42.6019 -74.0225 142° Southeast 275 316 5,100 -720 Descending Boston Center
12:51AM 42.5444 -73.9647 143° Southeast 249 287 4,400 -600 Descending Boston Center
12:52AM 42.4994 -73.9044 135° Southeast 234 269 3,900 -720 Descending Boston Center
12:53AM 42.5189 -73.8344 69° East 216 249 3,000 -840 Descending Boston Center
12:54AM 42.5756 -73.8189 11° North 199 229 2,300 -540 Descending Boston Center
12:55AM 42.5964 -73.8053 26° Northeast 170 196 2,200 -300 Descending Boston Center
12:56AM 42.6406 -73.7864 17° North 170 196 1,900 -420 Descending Boston Center
12:56AM 42.6694 -73.8039 336° Northwest 126 145 1,600 -660 Descending Boston Center
12:57AM 42.7069 -73.8047 359° North 123 142 900 -720 Descending Boston Center
01:00AM 42.7333 -73.8000 105° East  Level FlightAware Approximate
01:07AM 42.7491 -73.8020 105° East  Level Estimated
01:08AM 42.7491 -73.8020 105° East  Level Estimated